createdAt,value
2022-08-02T00:01:03.199Z,5.45
2022-08-02T00:02:05.685Z,5.90
2022-08-02T00:03:08.993Z,6.55
2022-08-02T00:04:11.535Z,7.00
2022-08-02T00:05:15.217Z,7.07
2022-08-02T00:06:17.504Z,7.65
2022-08-02T00:07:20.730Z,8.20
2022-08-02T00:08:23.072Z,9.07
2022-08-02T00:09:26.422Z,11.05
2022-08-02T00:10:28.726Z,15.05
2022-08-02T00:11:34.069Z,18.33
2022-08-02T00:12:36.670Z,17.80
2022-08-02T00:13:40.021Z,18.70
2022-08-02T00:14:42.482Z,19.02
2022-08-02T00:15:47.022Z,19.10
2022-08-02T00:16:49.353Z,17.80
2022-08-02T00:17:52.657Z,17.08
2022-08-02T00:18:55.132Z,17.85
2022-08-02T00:19:58.372Z,17.33
2022-08-02T00:21:00.573Z,16.95
2022-08-02T00:22:03.745Z,16.50
2022-08-02T00:23:07.061Z,16.58
2022-08-02T00:24:29.802Z,15.55
2022-08-02T00:25:32.802Z,14.38
2022-08-02T00:26:35.055Z,13.23
2022-08-02T00:27:38.316Z,12.07
2022-08-02T00:28:40.686Z,10.80
2022-08-02T00:29:53.099Z,11.40
2022-08-02T00:30:59.035Z,10.63
2022-08-02T00:32:02.478Z,9.55
2022-08-02T00:33:05.731Z,9.88
2022-08-02T00:34:28.495Z,8.55
2022-08-02T00:35:31.474Z,9.40
2022-08-02T00:36:34.731Z,8.90
2022-08-02T00:37:39.752Z,8.70
2022-08-02T00:38:43.248Z,8.40
2022-08-02T00:39:45.398Z,7.80
2022-08-02T00:40:49.079Z,7.78
2022-08-02T00:41:53.029Z,7.80
2022-08-02T00:43:04.333Z,8.52
2022-08-02T00:44:06.470Z,9.02
2022-08-02T00:45:10.460Z,9.07
2022-08-02T00:46:14.329Z,9.00
2022-08-02T00:47:19.431Z,8.10
2022-08-02T00:48:22.056Z,8.40
2022-08-02T00:49:25.218Z,8.02
2022-08-02T00:50:27.741Z,7.47
2022-08-02T00:51:30.905Z,7.82
2022-08-02T00:52:33.017Z,7.30
2022-08-02T00:53:36.458Z,6.97
2022-08-02T00:54:38.540Z,7.28
2022-08-02T00:55:41.689Z,6.82
2022-08-02T00:56:49.648Z,6.30
2022-08-02T00:57:54.918Z,6.30
2022-08-02T00:58:57.142Z,6.80
2022-08-02T01:00:00.275Z,6.38
2022-08-02T01:01:03.652Z,5.65
2022-08-02T01:02:08.390Z,5.43
2022-08-02T01:03:10.638Z,4.72
2022-08-02T01:04:15.399Z,5.40
2022-08-02T01:05:46.952Z,4.43
2022-08-02T01:06:56.092Z,4.53
2022-08-02T01:07:58.347Z,4.25
2022-08-02T01:09:02.000Z,4.30
2022-08-02T01:10:05.123Z,4.82
2022-08-02T01:11:08.679Z,5.30
2022-08-02T01:12:12.069Z,5.13
2022-08-02T01:13:15.589Z,5.53
2022-08-02T01:14:18.877Z,5.30
2022-08-02T01:15:23.632Z,5.32
2022-08-02T01:16:43.253Z,4.53
2022-08-02T01:17:53.743Z,4.60
2022-08-02T01:19:01.664Z,4.65
2022-08-02T01:20:13.296Z,4.60
2022-08-02T01:21:32.785Z,4.55
2022-08-02T01:24:21.160Z,4.25
2022-08-02T01:25:46.080Z,3.70
2022-08-02T01:26:52.990Z,3.92
2022-08-02T01:28:37.367Z,3.70
2022-08-02T01:29:43.827Z,3.35
2022-08-02T01:30:50.026Z,3.70
2022-08-02T01:32:00.467Z,3.65
2022-08-02T01:33:06.900Z,4.00
2022-08-02T01:34:17.741Z,3.70
2022-08-02T01:35:25.343Z,3.45
2022-08-02T01:36:34.195Z,3.47
2022-08-02T01:37:43.306Z,3.00
2022-08-02T01:38:49.683Z,3.10
2022-08-02T01:39:57.843Z,3.63
2022-08-02T01:41:03.928Z,3.38
2022-08-02T01:42:08.729Z,3.35
2022-08-02T01:43:12.604Z,2.92
2022-08-02T01:44:20.095Z,2.88
2022-08-02T01:45:33.239Z,3.13
2022-08-02T01:46:39.687Z,2.92
2022-08-02T01:47:44.300Z,3.47
2022-08-02T01:48:49.729Z,3.03
2022-08-02T01:49:54.685Z,2.80
2022-08-02T01:51:00.269Z,3.35
2022-08-02T01:52:22.465Z,3.17
2022-08-02T01:53:29.159Z,3.30
2022-08-02T01:54:33.720Z,3.10
2022-08-02T01:55:57.555Z,3.17
2022-08-02T01:57:03.087Z,2.70
2022-08-02T01:58:09.196Z,2.70
2022-08-02T01:59:14.176Z,3.67
2022-08-02T02:00:20.907Z,2.83
2022-08-02T02:01:23.983Z,2.90
2022-08-02T02:02:31.804Z,3.00
2022-08-02T02:03:35.775Z,3.00
2022-08-02T02:04:46.943Z,2.95
2022-08-02T02:05:50.563Z,3.33
2022-08-02T02:06:55.036Z,3.20
2022-08-02T02:07:59.036Z,3.33
2022-08-02T02:09:04.018Z,3.10
2022-08-02T02:10:09.206Z,2.63
2022-08-02T02:12:14.713Z,2.90
2022-08-02T02:12:39.491Z,2.78
2022-08-02T02:13:43.807Z,3.22
2022-08-02T02:14:51.393Z,2.80
2022-08-02T02:15:58.685Z,3.10
2022-08-02T02:17:02.994Z,2.92
2022-08-02T02:18:13.281Z,3.10
2022-08-02T02:19:20.917Z,2.88
2022-08-02T02:20:25.321Z,2.78
2022-08-02T02:21:27.504Z,3.05
2022-08-02T02:22:30.816Z,3.10
2022-08-02T02:23:35.598Z,3.22
2022-08-02T02:24:39.209Z,3.53
2022-08-02T02:25:46.451Z,3.17
2022-08-02T02:26:52.561Z,2.78
2022-08-02T02:28:00.017Z,3.20
2022-08-02T02:29:04.325Z,2.75
2022-08-02T02:30:07.964Z,3.15
2022-08-02T02:31:15.267Z,3.00
2022-08-02T02:32:18.799Z,2.92
2022-08-02T02:33:27.670Z,2.80
2022-08-02T02:34:34.238Z,3.05
2022-08-02T02:35:39.023Z,3.15
2022-08-02T02:36:45.867Z,3.20
2022-08-02T02:37:50.818Z,3.17
2022-08-02T02:38:54.333Z,3.00
2022-08-02T02:39:59.301Z,3.15
2022-08-02T02:41:03.400Z,3.00
2022-08-02T02:42:10.162Z,3.20
2022-08-02T02:43:12.942Z,2.88
2022-08-02T02:44:20.504Z,3.17
2022-08-02T02:45:24.292Z,3.53
2022-08-02T02:46:31.182Z,2.75
2022-08-02T02:47:40.743Z,3.00
2022-08-02T02:48:45.473Z,2.90
2022-08-02T02:49:49.163Z,3.45
2022-08-02T02:50:52.651Z,3.47
2022-08-02T02:51:56.134Z,3.10
2022-08-02T02:53:00.318Z,3.03
2022-08-02T02:54:30.715Z,3.35
2022-08-02T02:55:27.855Z,3.25
2022-08-02T02:56:30.514Z,3.00
2022-08-02T02:57:34.434Z,2.95
2022-08-02T02:58:38.298Z,3.13
2022-08-02T02:59:49.195Z,3.17
2022-08-02T03:01:10.779Z,2.80
2022-08-02T03:02:15.933Z,3.50
2022-08-02T03:03:19.732Z,2.78
2022-08-02T03:04:26.181Z,3.20
2022-08-02T03:05:28.550Z,3.15
2022-08-02T03:06:32.039Z,3.88
2022-08-02T03:07:34.648Z,2.83
2022-08-02T03:08:37.856Z,2.97
2022-08-02T03:09:40.029Z,3.20
2022-08-02T03:10:44.202Z,3.13
2022-08-02T03:11:46.766Z,3.50
2022-08-02T03:12:50.548Z,3.22
2022-08-02T03:13:53.514Z,3.30
2022-08-02T03:14:56.796Z,2.70
2022-08-02T03:16:02.026Z,2.90
2022-08-02T03:17:05.322Z,2.97
2022-08-02T03:18:09.817Z,3.10
2022-08-02T03:19:12.143Z,3.30
2022-08-02T03:20:17.731Z,3.40
2022-08-02T03:21:19.916Z,3.40
2022-08-02T03:22:23.049Z,3.03
2022-08-02T03:23:25.140Z,3.20
2022-08-02T03:24:28.583Z,3.08
2022-08-02T03:25:30.843Z,3.20
2022-08-02T03:26:33.965Z,3.22
2022-08-02T03:27:36.131Z,3.58
2022-08-02T03:28:39.488Z,3.10
2022-08-02T03:29:41.617Z,3.30
2022-08-02T03:30:44.779Z,3.30
2022-08-02T03:31:46.962Z,3.08
2022-08-02T03:32:50.259Z,3.53
2022-08-02T03:33:54.255Z,3.10
2022-08-02T03:34:57.911Z,3.85
2022-08-02T03:36:05.343Z,3.30
2022-08-02T03:37:10.415Z,3.03
2022-08-02T03:38:13.635Z,3.00
2022-08-02T03:39:18.861Z,2.90
2022-08-02T03:40:21.744Z,3.00
2022-08-02T03:41:25.686Z,3.20
2022-08-02T03:42:28.889Z,3.22
2022-08-02T03:43:32.449Z,3.13
2022-08-02T03:44:35.597Z,3.63
2022-08-02T03:45:41.067Z,3.55
2022-08-02T03:46:44.616Z,3.95
2022-08-02T03:47:48.056Z,3.30
2022-08-02T03:48:51.708Z,3.30
2022-08-02T03:49:57.148Z,3.13
2022-08-02T03:50:59.994Z,3.13
2022-08-02T03:52:04.072Z,3.40
2022-08-02T03:53:06.595Z,3.53
2022-08-02T03:54:34.806Z,3.50
2022-08-02T03:55:48.726Z,3.25
2022-08-02T03:56:50.994Z,3.50
2022-08-02T03:57:54.309Z,3.15
2022-08-02T03:59:07.027Z,3.53
2022-08-02T04:00:13.094Z,3.70
2022-08-02T04:01:17.535Z,3.97
2022-08-02T04:02:19.702Z,3.40
2022-08-02T04:03:23.145Z,3.60
2022-08-02T04:04:25.299Z,3.45
2022-08-02T04:05:29.784Z,3.80
2022-08-02T04:06:32.208Z,3.90
2022-08-02T04:08:34.178Z,3.75
2022-08-02T04:08:58.545Z,3.58
2022-08-02T04:10:00.819Z,3.95
2022-08-02T04:11:21.429Z,3.58
2022-08-02T04:12:24.656Z,3.60
2022-08-02T04:13:31.850Z,3.85
2022-08-02T04:14:39.318Z,3.28
2022-08-02T04:15:41.865Z,3.80
2022-08-02T04:16:48.012Z,3.90
2022-08-02T04:17:53.017Z,4.10
2022-08-02T04:19:04.834Z,3.80
2022-08-02T04:20:13.015Z,3.42
2022-08-02T04:21:20.570Z,3.83
2022-08-02T04:22:28.669Z,4.15
2022-08-02T04:23:33.222Z,4.53
2022-08-02T04:24:40.687Z,3.70
2022-08-02T04:25:44.485Z,3.65
2022-08-02T04:26:49.904Z,3.97
2022-08-02T04:28:17.797Z,3.53
2022-08-02T04:29:18.255Z,3.75
2022-08-02T04:30:21.498Z,3.95
2022-08-02T04:31:25.387Z,3.65
2022-08-02T04:32:28.000Z,3.83
2022-08-02T04:33:32.284Z,3.80
2022-08-02T04:34:34.623Z,3.78
2022-08-02T04:35:37.921Z,3.58
2022-08-02T04:36:41.540Z,4.13
2022-08-02T04:38:05.575Z,4.20
2022-08-02T04:39:08.507Z,3.83
2022-08-02T04:40:12.156Z,4.05
2022-08-02T04:41:15.697Z,3.80
2022-08-02T04:42:22.010Z,4.30
2022-08-02T04:43:25.498Z,4.00
2022-08-02T04:44:28.669Z,3.88
2022-08-02T04:45:31.086Z,3.83
2022-08-02T04:46:34.628Z,4.10
2022-08-02T04:47:54.348Z,4.97
2022-08-02T04:49:00.116Z,4.53
2022-08-02T04:50:04.785Z,4.00
2022-08-02T04:51:07.911Z,4.38
2022-08-02T04:52:11.701Z,4.25
2022-08-02T04:53:15.104Z,4.22
2022-08-02T04:54:18.315Z,4.43
2022-08-02T04:55:20.529Z,4.20
2022-08-02T04:56:25.366Z,4.50
2022-08-02T04:57:52.373Z,4.32
2022-08-02T04:58:56.276Z,4.88
2022-08-02T04:59:58.493Z,4.07
2022-08-02T05:01:01.660Z,4.22
2022-08-02T05:02:03.884Z,4.28
2022-08-02T05:03:07.085Z,3.90
2022-08-02T05:04:09.335Z,4.47
2022-08-02T05:05:12.486Z,4.53
2022-08-02T05:06:19.248Z,4.05
2022-08-02T05:07:24.247Z,4.20
2022-08-02T05:08:26.435Z,4.03
2022-08-02T05:09:29.574Z,4.70
2022-08-02T05:10:31.756Z,4.53
2022-08-02T05:11:36.588Z,3.83
2022-08-02T05:12:39.682Z,3.60
2022-08-02T05:13:58.495Z,4.05
2022-08-02T05:15:02.636Z,4.20
2022-08-02T05:16:05.570Z,4.25
2022-08-02T05:17:08.672Z,3.92
2022-08-02T05:18:12.381Z,3.70
2022-08-02T05:19:16.559Z,3.80
2022-08-02T05:20:19.499Z,3.78
2022-08-02T05:21:22.621Z,4.28
2022-08-02T05:22:26.250Z,4.60
2022-08-02T05:23:29.457Z,4.10
2022-08-02T05:24:31.634Z,4.20
2022-08-02T05:25:34.791Z,4.07
2022-08-02T05:26:36.906Z,4.10
2022-08-02T05:27:40.072Z,4.10
2022-08-02T05:28:43.227Z,4.63
2022-08-02T05:29:53.031Z,4.32
2022-08-02T05:30:57.372Z,4.28
2022-08-02T05:31:59.544Z,4.22
2022-08-02T05:33:02.665Z,4.38
2022-08-02T05:34:07.573Z,4.10
2022-08-02T05:35:15.138Z,4.57
2022-08-02T05:36:17.294Z,4.10
2022-08-02T05:37:20.980Z,4.07
2022-08-02T05:38:26.148Z,4.15
2022-08-02T05:39:31.924Z,4.07
2022-08-02T05:40:34.107Z,3.47
2022-08-02T05:41:37.293Z,3.78
2022-08-02T05:42:39.414Z,4.00
2022-08-02T05:43:42.481Z,4.00
2022-08-02T05:44:44.670Z,3.58
2022-08-02T05:45:47.732Z,3.40
2022-08-02T05:46:49.887Z,3.60
2022-08-02T05:47:53.658Z,3.95
2022-08-02T05:48:56.031Z,3.30
2022-08-02T05:49:59.630Z,3.72
2022-08-02T05:51:05.680Z,3.38
2022-08-02T05:52:16.039Z,3.47
2022-08-02T05:53:29.961Z,3.10
2022-08-02T05:54:40.253Z,3.25
2022-08-02T05:55:49.270Z,3.13
2022-08-02T05:56:55.065Z,3.00
2022-08-02T05:58:03.951Z,3.40
2022-08-02T05:59:13.948Z,3.05
2022-08-02T06:00:18.104Z,3.15
2022-08-02T06:01:29.725Z,3.03
2022-08-02T06:02:45.246Z,2.95
2022-08-02T06:03:52.233Z,2.92
2022-08-02T06:05:00.634Z,2.90
2022-08-02T06:06:07.527Z,2.92
2022-08-02T06:07:12.030Z,2.65
2022-08-02T06:08:15.185Z,2.20
2022-08-02T06:09:23.028Z,3.05
2022-08-02T06:10:30.566Z,2.15
2022-08-02T06:11:36.930Z,2.15
2022-08-02T06:12:46.697Z,2.50
2022-08-02T06:13:49.377Z,2.30
2022-08-02T06:14:54.644Z,2.50
2022-08-02T06:16:00.945Z,2.97
2022-08-02T06:17:05.207Z,2.50
2022-08-02T06:18:09.130Z,2.78
2022-08-02T06:19:13.985Z,2.53
2022-08-02T06:20:16.707Z,2.83
2022-08-02T06:22:32.244Z,2.45
2022-08-02T06:22:46.433Z,2.75
2022-08-02T06:23:57.793Z,2.33
2022-08-02T06:25:04.519Z,2.60
2022-08-02T06:26:09.039Z,2.70
2022-08-02T06:27:13.520Z,2.70
2022-08-02T06:28:18.087Z,2.70
2022-08-02T06:29:21.077Z,3.03
2022-08-02T06:30:26.909Z,2.60
2022-08-02T06:31:30.578Z,2.67
2022-08-02T06:32:33.582Z,2.80
2022-08-02T06:33:36.843Z,2.78
2022-08-02T06:34:39.735Z,2.55
2022-08-02T06:35:47.595Z,3.00
2022-08-02T06:36:55.643Z,2.67
2022-08-02T06:38:01.901Z,2.33
2022-08-02T06:39:09.517Z,2.58
2022-08-02T06:40:24.698Z,3.25
2022-08-02T06:41:29.430Z,2.72
2022-08-02T06:42:43.562Z,2.67
2022-08-02T06:43:53.706Z,2.35
2022-08-02T06:44:57.994Z,2.10
2022-08-02T06:46:37.713Z,2.67
2022-08-02T06:47:24.836Z,2.47
2022-08-02T06:48:28.056Z,2.33
2022-08-02T06:49:51.964Z,2.25
2022-08-02T06:50:53.581Z,2.40
2022-08-02T06:51:55.810Z,2.50
2022-08-02T06:52:59.018Z,2.25
2022-08-02T06:54:01.309Z,2.40
2022-08-02T06:55:06.796Z,2.80
2022-08-02T06:56:10.479Z,2.20
2022-08-02T06:57:14.536Z,2.15
2022-08-02T06:58:17.746Z,2.25
2022-08-02T06:59:19.900Z,2.00
2022-08-02T07:00:23.041Z,2.47
2022-08-02T07:01:25.362Z,2.25
2022-08-02T07:02:28.589Z,2.05
2022-08-02T07:03:31.113Z,2.28
2022-08-02T07:04:34.970Z,2.17
2022-08-02T07:05:38.662Z,2.05
2022-08-02T07:06:40.871Z,2.60
2022-08-02T07:07:44.101Z,2.33
2022-08-02T07:09:04.915Z,2.10
2022-08-02T07:10:10.217Z,2.13
2022-08-02T07:11:14.762Z,2.25
2022-08-02T07:12:16.982Z,2.00
2022-08-02T07:13:20.171Z,2.17
2022-08-02T07:14:22.319Z,2.08
2022-08-02T07:15:25.544Z,2.33
2022-08-02T07:16:27.695Z,1.88
2022-08-02T07:17:31.281Z,2.15
2022-08-02T07:18:35.101Z,2.03
2022-08-02T07:19:38.615Z,2.30
2022-08-02T07:20:41.044Z,1.73
2022-08-02T07:21:56.609Z,1.90
2022-08-02T07:23:02.832Z,1.92
2022-08-02T07:24:05.379Z,2.78
2022-08-02T07:25:09.605Z,1.70
2022-08-02T07:26:13.121Z,2.17
2022-08-02T07:27:16.368Z,2.30
2022-08-02T07:28:24.019Z,1.88
2022-08-02T07:29:27.042Z,1.90
2022-08-02T07:30:36.257Z,1.88
2022-08-02T07:31:38.454Z,1.85
2022-08-02T07:32:44.649Z,1.65
2022-08-02T07:33:47.188Z,1.90
2022-08-02T07:34:53.494Z,1.88
2022-08-02T07:35:58.768Z,1.70
2022-08-02T07:37:03.962Z,2.55
2022-08-02T07:38:09.277Z,1.67
2022-08-02T07:39:11.451Z,1.60
2022-08-02T07:40:19.876Z,1.90
2022-08-02T07:41:25.946Z,1.67
2022-08-02T07:42:29.476Z,1.90
2022-08-02T07:43:32.682Z,2.28
2022-08-02T07:44:34.916Z,1.85
2022-08-02T07:45:45.792Z,1.90
2022-08-02T07:46:59.548Z,1.83
2022-08-02T07:48:02.942Z,1.95
2022-08-02T07:49:05.148Z,1.77
2022-08-02T07:50:09.860Z,1.70
2022-08-02T07:51:16.987Z,1.70
2022-08-02T07:52:20.502Z,1.60
2022-08-02T07:53:30.638Z,1.95
2022-08-02T07:54:47.289Z,1.60
2022-08-02T07:55:50.456Z,2.03
2022-08-02T07:56:58.372Z,1.63
2022-08-02T07:58:02.462Z,1.67
2022-08-02T07:59:05.226Z,1.80
2022-08-02T08:00:09.767Z,1.83
2022-08-02T08:01:14.719Z,1.88
2022-08-02T08:02:17.910Z,1.80
2022-08-02T08:03:20.403Z,1.63
2022-08-02T08:04:23.714Z,1.77
2022-08-02T08:05:25.857Z,1.63
2022-08-02T08:06:29.478Z,1.73
2022-08-02T08:07:31.695Z,2.03
2022-08-02T08:08:35.759Z,1.88
2022-08-02T08:09:41.201Z,2.05
2022-08-02T08:10:43.524Z,1.75
2022-08-02T08:11:46.638Z,1.80
2022-08-02T08:12:50.227Z,1.73
2022-08-02T08:13:53.413Z,1.60
2022-08-02T08:14:55.765Z,2.22
2022-08-02T08:15:58.984Z,1.63
2022-08-02T08:17:02.442Z,1.98
2022-08-02T08:18:04.730Z,1.92
2022-08-02T08:19:07.990Z,2.10
2022-08-02T08:20:15.418Z,1.67
2022-08-02T08:21:19.241Z,1.70
2022-08-02T08:22:21.611Z,2.15
2022-08-02T08:23:24.894Z,1.80
2022-08-02T08:24:27.188Z,1.98
2022-08-02T08:25:30.366Z,3.08
2022-08-02T08:26:32.634Z,2.30
2022-08-02T08:27:35.848Z,2.17
2022-08-02T08:28:40.393Z,1.50
2022-08-02T08:29:43.007Z,1.80
2022-08-02T08:30:47.404Z,1.83
2022-08-02T08:31:49.822Z,2.80
2022-08-02T08:32:53.115Z,2.22
2022-08-02T08:33:56.901Z,1.98
2022-08-02T08:34:59.469Z,1.77
2022-08-02T08:36:02.809Z,1.98
2022-08-02T08:37:06.372Z,1.73
2022-08-02T08:38:09.696Z,2.15
2022-08-02T08:39:12.886Z,1.55
2022-08-02T08:40:19.327Z,1.80
2022-08-02T08:41:22.978Z,1.77
2022-08-02T08:42:25.199Z,2.10
2022-08-02T08:43:28.364Z,2.08
2022-08-02T08:44:33.241Z,1.75
2022-08-02T08:45:36.881Z,1.60
2022-08-02T08:46:43.406Z,1.42
2022-08-02T08:47:52.212Z,1.67
2022-08-02T08:49:01.169Z,2.50
2022-08-02T08:50:05.860Z,1.95
2022-08-02T08:51:12.914Z,2.20
2022-08-02T08:52:16.510Z,1.60
2022-08-02T08:53:21.400Z,2.03
2022-08-02T08:54:42.156Z,1.55
2022-08-02T08:55:44.931Z,1.63
2022-08-02T08:56:48.504Z,1.52
2022-08-02T08:57:51.354Z,1.50
2022-08-02T08:58:54.492Z,1.38
2022-08-02T08:59:58.448Z,1.63
2022-08-02T09:01:01.741Z,1.88
2022-08-02T09:02:16.833Z,1.92
2022-08-02T09:03:24.752Z,2.10
2022-08-02T09:04:27.161Z,1.60
2022-08-02T09:05:30.313Z,1.88
2022-08-02T09:06:32.528Z,1.70
2022-08-02T09:07:35.726Z,1.60
2022-08-02T09:08:38.953Z,1.40
2022-08-02T09:09:41.148Z,1.60
2022-08-02T09:10:46.076Z,1.55
2022-08-02T09:11:49.336Z,2.47
2022-08-02T09:13:37.504Z,1.40
2022-08-02T09:14:32.759Z,1.70
2022-08-02T09:15:36.495Z,1.98
2022-08-02T09:16:41.395Z,5.30
2022-08-02T09:17:50.897Z,2.40
2022-08-02T09:18:54.054Z,2.35
2022-08-02T09:20:07.949Z,2.00
2022-08-02T09:21:11.487Z,3.42
2022-08-02T09:22:16.278Z,2.38
2022-08-02T09:23:18.950Z,1.85
2022-08-02T09:24:23.748Z,1.52
2022-08-02T09:25:25.926Z,1.48
2022-08-02T09:26:29.431Z,1.60
2022-08-02T09:27:37.821Z,1.60
2022-08-02T09:28:41.662Z,1.75
2022-08-02T09:30:11.656Z,1.52
2022-08-02T09:31:13.558Z,1.45
2022-08-02T09:32:17.948Z,1.40
2022-08-02T09:33:27.462Z,1.80
2022-08-02T09:34:45.277Z,1.80
2022-08-02T09:36:06.548Z,1.65
2022-08-02T09:37:23.316Z,1.50
2022-08-02T09:38:26.464Z,1.52
2022-08-02T09:39:47.598Z,1.80
2022-08-02T09:40:50.156Z,1.55
2022-08-02T09:41:53.397Z,1.60
2022-08-02T09:42:59.339Z,1.73
2022-08-02T09:44:06.435Z,1.77
2022-08-02T09:45:10.296Z,1.70
2022-08-02T09:46:17.174Z,1.40
2022-08-02T09:47:19.295Z,1.40
2022-08-02T09:48:22.776Z,1.75
2022-08-02T09:49:26.149Z,1.35
2022-08-02T09:50:29.627Z,1.40
2022-08-02T09:51:34.759Z,1.30
2022-08-02T09:52:43.697Z,1.48
2022-08-02T09:53:48.741Z,1.60
2022-08-02T09:54:52.178Z,1.70
2022-08-02T09:55:56.204Z,1.58
2022-08-02T09:57:01.076Z,1.58
2022-08-02T09:58:19.097Z,1.80
2022-08-02T09:59:25.360Z,1.67
2022-08-02T10:00:50.878Z,3.28
2022-08-02T10:02:01.273Z,1.83
2022-08-02T10:03:09.418Z,1.35
2022-08-02T10:04:22.519Z,1.52
2022-08-02T10:05:30.129Z,1.50
2022-08-02T10:06:38.756Z,1.30
2022-08-02T10:07:41.989Z,1.30
2022-08-02T10:08:45.479Z,1.55
2022-08-02T10:09:49.173Z,1.77
2022-08-02T10:11:00.375Z,1.50
2022-08-02T10:12:04.871Z,2.35
2022-08-02T10:13:07.369Z,2.17
2022-08-02T10:14:11.890Z,1.75
2022-08-02T10:15:14.868Z,1.90
2022-08-02T10:16:19.751Z,2.05
2022-08-02T10:17:25.337Z,1.48
2022-08-02T10:18:38.848Z,1.73
2022-08-02T10:20:00.067Z,1.40
2022-08-02T10:21:07.567Z,1.55
2022-08-02T10:22:12.779Z,1.88
2022-08-02T10:23:16.160Z,1.50
2022-08-02T10:24:22.210Z,1.60
2022-08-02T10:25:25.039Z,1.45
2022-08-02T10:26:28.568Z,1.50
2022-08-02T10:27:48.922Z,1.55
2022-08-02T10:28:55.353Z,3.97
2022-08-02T10:30:00.713Z,2.13
2022-08-02T10:31:06.499Z,1.83
2022-08-02T10:32:13.007Z,2.20
2022-08-02T10:33:20.176Z,2.53
2022-08-02T10:34:31.563Z,1.58
2022-08-02T10:35:37.700Z,1.75
2022-08-02T10:36:42.834Z,1.40
2022-08-02T10:37:47.920Z,1.58
2022-08-02T10:38:51.531Z,1.63
2022-08-02T10:39:56.557Z,1.75
2022-08-02T10:40:59.781Z,1.35
2022-08-02T10:42:02.930Z,1.88
2022-08-02T10:43:05.060Z,1.52
2022-08-02T10:44:08.287Z,1.52
2022-08-02T10:45:28.316Z,1.80
2022-08-02T10:46:33.293Z,1.42
2022-08-02T10:47:36.469Z,1.45
2022-08-02T10:49:36.138Z,1.50
2022-08-02T10:50:55.734Z,2.00
2022-08-02T10:52:07.071Z,1.60
2022-08-02T10:53:29.781Z,1.42
2022-08-02T10:54:34.513Z,1.60
2022-08-02T10:55:46.589Z,1.50
2022-08-02T10:56:51.102Z,1.63
2022-08-02T10:58:17.733Z,1.83
2022-08-02T10:59:29.247Z,1.65
2022-08-02T11:00:32.429Z,1.20
2022-08-02T11:01:43.895Z,1.55
2022-08-02T11:02:53.306Z,1.60
2022-08-02T11:03:59.541Z,1.45
2022-08-02T11:05:06.972Z,1.60
2022-08-02T11:06:24.986Z,1.40
2022-08-02T11:07:36.401Z,1.50
2022-08-02T11:08:40.199Z,1.48
2022-08-02T11:09:42.947Z,1.40
2022-08-02T11:10:46.528Z,1.17
2022-08-02T11:12:01.447Z,1.38
2022-08-02T11:13:10.493Z,1.48
2022-08-02T11:14:14.763Z,1.35
2022-08-02T11:15:20.032Z,1.40
2022-08-02T11:16:23.191Z,1.73
2022-08-02T11:17:28.902Z,1.85
2022-08-02T11:19:04.055Z,1.73
2022-08-02T11:20:19.015Z,1.58
2022-08-02T11:21:24.771Z,1.75
2022-08-02T11:22:28.069Z,1.45
2022-08-02T11:23:44.266Z,2.28
2022-08-02T11:24:49.313Z,1.70
2022-08-02T11:26:03.554Z,1.80
2022-08-02T11:27:09.034Z,2.00
2022-08-02T11:28:12.714Z,2.28
2022-08-02T11:29:16.346Z,1.75
2022-08-02T11:30:20.572Z,2.15
2022-08-02T11:32:36.157Z,4.10
2022-08-02T11:33:38.852Z,5.55
2022-08-02T11:34:43.545Z,6.55
2022-08-02T11:35:47.181Z,2.90
2022-08-02T11:36:52.743Z,3.25
2022-08-02T11:37:55.352Z,2.13
2022-08-02T11:39:10.709Z,1.95
2022-08-02T11:40:18.994Z,1.83
2022-08-02T11:41:45.810Z,1.48
2022-08-02T11:42:50.399Z,1.50
2022-08-02T11:43:54.851Z,3.90
2022-08-02T11:44:58.102Z,1.40
2022-08-02T11:46:03.898Z,1.50
2022-08-02T11:47:08.411Z,1.42
2022-08-02T11:48:10.741Z,1.30
2022-08-02T11:49:16.173Z,1.42
2022-08-02T11:50:29.950Z,1.50
2022-08-02T11:51:34.148Z,1.50
2022-08-02T11:52:39.020Z,1.40
2022-08-02T11:53:50.162Z,1.30
2022-08-02T11:54:53.363Z,1.33
2022-08-02T11:55:57.436Z,2.10
2022-08-02T11:57:19.293Z,1.70
2022-08-02T11:58:23.442Z,1.52
2022-08-02T11:59:25.695Z,1.73
2022-08-02T12:00:30.579Z,1.52
2022-08-02T12:01:44.788Z,3.83
2022-08-02T12:02:49.862Z,1.60
2022-08-02T12:03:52.262Z,1.40
2022-08-02T12:04:58.422Z,3.30
2022-08-02T12:06:06.419Z,4.88
2022-08-02T12:07:15.334Z,5.18
2022-08-02T12:08:19.195Z,3.05
2022-08-02T12:09:27.603Z,1.48
2022-08-02T12:10:31.138Z,1.75
2022-08-02T12:11:39.175Z,1.70
2022-08-02T12:12:49.758Z,3.28
2022-08-02T12:13:57.064Z,3.17
2022-08-02T12:15:00.763Z,2.30
2022-08-02T12:16:25.750Z,1.98
2022-08-02T12:17:50.086Z,2.00
2022-08-02T12:19:22.353Z,1.40
2022-08-02T12:20:37.363Z,1.30
2022-08-02T12:21:40.682Z,1.85
2022-08-02T12:22:45.520Z,1.50
2022-08-02T12:24:00.131Z,1.50
2022-08-02T12:25:33.466Z,1.40
2022-08-02T12:26:44.451Z,1.50
2022-08-02T12:27:47.897Z,1.50
2022-08-02T12:28:57.526Z,1.35
2022-08-02T12:30:03.667Z,1.45
2022-08-02T12:31:08.436Z,1.52
2022-08-02T12:32:25.417Z,1.35
2022-08-02T12:33:30.369Z,1.90
2022-08-02T12:34:35.077Z,1.30
2022-08-02T12:35:37.337Z,1.65
2022-08-02T12:36:40.692Z,1.95
2022-08-02T12:37:47.561Z,1.63
2022-08-02T12:38:53.133Z,1.75
2022-08-02T12:39:56.320Z,1.45
2022-08-02T12:41:30.263Z,1.95
2022-08-02T12:42:46.525Z,1.40
2022-08-02T12:43:50.983Z,2.10
2022-08-02T12:44:54.560Z,1.80
2022-08-02T12:45:57.811Z,1.40
2022-08-02T12:47:02.026Z,1.50
2022-08-02T12:48:07.287Z,1.45
2022-08-02T12:49:18.398Z,1.30
2022-08-02T12:50:25.591Z,1.58
2022-08-02T12:51:50.955Z,1.42
2022-08-02T12:53:07.288Z,1.20
2022-08-02T12:54:18.075Z,2.10
2022-08-02T12:55:24.437Z,4.10
2022-08-02T12:56:28.389Z,7.90
2022-08-02T12:57:31.571Z,2.30
2022-08-02T12:58:49.658Z,2.30
2022-08-02T12:59:54.579Z,1.20
2022-08-02T13:00:58.894Z,1.30
2022-08-02T13:02:04.189Z,1.30
2022-08-02T13:04:07.862Z,1.17
2022-08-02T13:04:33.040Z,1.50
2022-08-02T13:05:56.572Z,1.23
2022-08-02T13:07:00.722Z,1.20
2022-08-02T13:08:05.006Z,1.40
2022-08-02T13:09:16.881Z,1.10
2022-08-02T13:10:21.596Z,1.23
2022-08-02T13:11:23.732Z,1.33
2022-08-02T13:12:26.881Z,1.30
2022-08-02T13:13:29.069Z,1.30
2022-08-02T13:14:39.868Z,1.20
2022-08-02T13:15:48.858Z,0.90
2022-08-02T13:16:54.091Z,1.13
2022-08-02T13:17:56.864Z,1.30
2022-08-02T13:19:00.291Z,1.08
2022-08-02T13:20:04.110Z,1.25
2022-08-02T13:21:07.377Z,1.30
2022-08-02T13:22:18.814Z,1.40
2022-08-02T13:23:23.390Z,2.03
2022-08-02T13:24:37.988Z,1.50
2022-08-02T13:25:42.882Z,2.10
2022-08-02T13:26:45.519Z,1.35
2022-08-02T13:27:48.643Z,1.20
2022-08-02T13:28:50.738Z,1.85
2022-08-02T13:29:55.377Z,4.40
2022-08-02T13:31:06.070Z,6.55
2022-08-02T13:32:21.205Z,2.92
2022-08-02T13:33:23.581Z,1.45
2022-08-02T13:34:27.286Z,1.30
2022-08-02T13:35:30.737Z,1.33
2022-08-02T13:36:33.914Z,1.30
2022-08-02T13:37:40.128Z,1.58
2022-08-02T13:38:43.966Z,1.48
2022-08-02T13:40:05.446Z,1.58
2022-08-02T13:41:10.730Z,3.10
2022-08-02T13:42:16.930Z,3.83
2022-08-02T13:43:20.343Z,2.00
2022-08-02T13:44:22.858Z,4.85
2022-08-02T13:45:26.341Z,6.00
2022-08-02T13:46:29.544Z,5.88
2022-08-02T13:47:36.270Z,6.55
2022-08-02T13:48:56.057Z,2.65
2022-08-02T13:49:58.325Z,1.83
2022-08-02T13:51:01.579Z,2.20
2022-08-02T13:52:03.769Z,4.85
2022-08-02T13:53:07.134Z,3.03
2022-08-02T13:54:10.728Z,5.93
2022-08-02T13:55:13.871Z,2.92
2022-08-02T13:56:18.081Z,2.28
2022-08-02T13:57:21.938Z,3.10
2022-08-02T13:58:25.168Z,3.55
2022-08-02T13:59:58.480Z,2.40
2022-08-02T14:00:50.569Z,1.52
2022-08-02T14:01:52.851Z,1.30
2022-08-02T14:02:56.130Z,1.80
2022-08-02T14:04:07.383Z,1.73
2022-08-02T14:05:12.299Z,1.70
2022-08-02T14:06:15.423Z,1.60
2022-08-02T14:07:17.645Z,1.70
2022-08-02T14:08:22.890Z,1.92
2022-08-02T14:09:27.641Z,1.50
2022-08-02T14:10:30.456Z,1.73
2022-08-02T14:11:34.187Z,1.80
2022-08-02T14:12:38.068Z,1.45
2022-08-02T14:13:40.333Z,1.65
2022-08-02T14:14:43.498Z,1.60
2022-08-02T14:15:46.108Z,1.50
2022-08-02T14:16:49.306Z,1.50
2022-08-02T14:17:51.459Z,1.77
2022-08-02T14:18:57.301Z,1.50
2022-08-02T14:20:00.466Z,1.45
2022-08-02T14:21:02.953Z,1.50
2022-08-02T14:22:11.153Z,1.42
2022-08-02T14:23:15.519Z,1.65
2022-08-02T14:24:18.942Z,1.40
2022-08-02T14:25:23.535Z,1.50
2022-08-02T14:26:27.097Z,1.45
2022-08-02T14:27:31.565Z,1.48
2022-08-02T14:28:42.711Z,1.50
2022-08-02T14:29:44.900Z,1.50
2022-08-02T14:30:48.048Z,1.40
2022-08-02T14:31:51.697Z,1.60
2022-08-02T14:32:55.170Z,1.40
2022-08-02T14:33:57.352Z,1.42
2022-08-02T14:35:00.828Z,1.50
2022-08-02T14:36:04.276Z,2.20
2022-08-02T14:37:07.347Z,2.40
2022-08-02T14:38:10.497Z,1.70
2022-08-02T14:39:12.657Z,1.55
2022-08-02T14:40:31.151Z,1.73
2022-08-02T14:41:59.345Z,1.60
2022-08-02T14:43:01.263Z,1.65
2022-08-02T14:44:04.626Z,1.70
2022-08-02T14:45:08.541Z,1.55
2022-08-02T14:46:10.843Z,1.50